createdAt,value
2022-08-22T00:02:49.264Z,18.20
2022-08-22T00:02:56.161Z,20.60
2022-08-22T00:03:12.734Z,15.60
2022-08-22T00:07:13.969Z,15.60
2022-08-22T00:11:25.707Z,15.50
2022-08-22T00:15:07.729Z,15.40
2022-08-22T00:19:49.024Z,15.40
2022-08-22T00:23:35.739Z,15.30
2022-08-22T00:27:21.167Z,15.30
2022-08-22T00:31:22.087Z,15.30
2022-08-22T00:35:31.652Z,15.20
2022-08-22T00:39:22.311Z,15.20
2022-08-22T00:43:17.137Z,15.10
2022-08-22T00:47:23.546Z,15.10
2022-08-22T00:51:37.366Z,15.00
2022-08-22T00:55:43.891Z,15.00
2022-08-22T00:59:47.153Z,15.00
2022-08-22T01:03:44.167Z,15.00
2022-08-22T01:07:55.395Z,14.90
2022-08-22T01:12:02.367Z,14.90
2022-08-22T01:15:46.466Z,14.80
2022-08-22T01:19:35.265Z,14.80
2022-08-22T01:24:04.303Z,14.80
2022-08-22T01:28:23.701Z,14.70
2022-08-22T01:32:44.822Z,14.70
2022-08-22T01:36:50.368Z,14.70
2022-08-22T01:41:13.159Z,14.70
2022-08-22T01:45:26.830Z,14.70
2022-08-22T01:49:28.158Z,14.70
2022-08-22T01:53:19.613Z,14.70
2022-08-22T01:57:05.736Z,14.70
2022-08-22T02:01:18.979Z,14.70
2022-08-22T02:05:01.185Z,14.70
2022-08-22T02:09:02.229Z,14.70
2022-08-22T02:13:10.363Z,14.80
2022-08-22T02:17:10.023Z,14.80
2022-08-22T02:21:03.038Z,14.80
2022-08-22T02:25:04.524Z,14.80
2022-08-22T02:29:01.196Z,14.80
2022-08-22T02:32:57.565Z,14.70
2022-08-22T02:37:11.446Z,14.80
2022-08-22T02:41:19.010Z,14.70
2022-08-22T02:45:17.871Z,14.80
2022-08-22T02:49:24.116Z,14.70
2022-08-22T02:53:21.199Z,14.70
2022-08-22T02:57:03.408Z,14.70
2022-08-22T03:00:58.716Z,14.70
2022-08-22T03:04:40.658Z,14.70
2022-08-22T03:08:36.306Z,14.70
2022-08-22T03:12:40.117Z,14.70
2022-08-22T03:16:25.169Z,14.70
2022-08-22T03:20:14.884Z,14.70
2022-08-22T03:24:14.731Z,14.70
2022-08-22T03:28:02.111Z,14.70
2022-08-22T03:32:06.107Z,14.70
2022-08-22T03:35:48.032Z,14.70
2022-08-22T03:39:56.274Z,14.70
2022-08-22T03:43:58.939Z,14.70
2022-08-22T03:47:59.608Z,14.70
2022-08-22T03:52:08.556Z,14.70
2022-08-22T03:56:12.023Z,14.60
2022-08-22T04:00:28.894Z,14.60
2022-08-22T04:04:55.829Z,14.60
2022-08-22T04:08:52.386Z,14.50
2022-08-22T04:12:58.551Z,14.50
2022-08-22T04:16:58.465Z,14.50
2022-08-22T04:21:02.116Z,14.40
2022-08-22T04:24:51.916Z,14.50
2022-08-22T04:28:49.440Z,14.50
2022-08-22T04:33:15.219Z,14.40
2022-08-22T04:37:05.550Z,14.40
2022-08-22T04:40:54.286Z,14.30
2022-08-22T04:44:51.741Z,14.30
2022-08-22T04:48:53.082Z,14.30
2022-08-22T04:52:53.189Z,14.20
2022-08-22T04:57:16.590Z,14.20
2022-08-22T05:01:25.685Z,14.20
2022-08-22T05:05:23.283Z,14.30
2022-08-22T05:09:15.515Z,14.30
2022-08-22T05:13:04.289Z,14.40
2022-08-22T05:16:51.260Z,14.50
2022-08-22T05:20:34.869Z,14.50
2022-08-22T05:24:42.406Z,14.60
2022-08-22T05:28:27.296Z,14.60
2022-08-22T05:32:19.314Z,14.60
2022-08-22T05:36:19.806Z,14.70
2022-08-22T05:40:02.345Z,14.80
2022-08-22T05:43:45.705Z,14.90
2022-08-22T05:47:48.365Z,15.00
2022-08-22T05:51:47.430Z,15.20
2022-08-22T05:55:48.985Z,15.30
2022-08-22T05:59:35.347Z,15.50
2022-08-22T06:03:17.258Z,15.60
2022-08-22T06:07:08.880Z,15.70
2022-08-22T06:11:04.477Z,15.80
2022-08-22T06:14:50.637Z,15.80
2022-08-22T06:18:35.819Z,15.90
2022-08-22T06:22:25.902Z,16.00
2022-08-22T06:26:20.613Z,16.10
2022-08-22T06:30:04.714Z,16.30
2022-08-22T06:33:55.468Z,16.40
2022-08-22T06:37:45.982Z,16.60
2022-08-22T06:41:33.144Z,16.70
2022-08-22T06:45:20.211Z,16.90
2022-08-22T06:49:06.578Z,17.10
2022-08-22T06:53:05.466Z,17.20
2022-08-22T06:56:50.217Z,17.40
2022-08-22T07:00:35.267Z,17.50
2022-08-22T07:04:18.282Z,17.50
2022-08-22T07:08:12.110Z,17.50
2022-08-22T07:11:57.753Z,17.60
2022-08-22T07:15:42.807Z,17.60
2022-08-22T07:19:30.502Z,17.80
2022-08-22T07:23:23.646Z,18.00
2022-08-22T07:27:31.498Z,18.30
2022-08-22T07:31:24.595Z,18.60
2022-08-22T07:35:09.936Z,18.70
2022-08-22T07:39:11.072Z,18.80
2022-08-22T07:43:06.654Z,18.80
2022-08-22T07:47:11.610Z,18.90
2022-08-22T07:51:25.813Z,18.90
2022-08-22T07:55:25.905Z,18.90
2022-08-22T07:59:13.327Z,19.00
2022-08-22T08:02:59.166Z,19.10
2022-08-22T08:06:41.621Z,19.20
2022-08-22T08:10:29.621Z,19.30
2022-08-22T08:14:14.703Z,19.60
2022-08-22T08:18:03.792Z,19.90
2022-08-22T08:21:56.293Z,20.20
2022-08-22T08:26:09.959Z,20.40
2022-08-22T08:29:58.949Z,20.70
2022-08-22T08:33:44.770Z,20.90
2022-08-22T08:37:51.845Z,21.10
2022-08-22T08:41:51.634Z,21.10
2022-08-22T08:45:36.650Z,21.10
2022-08-22T08:49:46.132Z,21.00
2022-08-22T08:54:04.297Z,21.00
2022-08-22T08:58:06.684Z,20.90
2022-08-22T09:02:23.530Z,20.90
2022-08-22T09:06:52.878Z,20.90
2022-08-22T09:11:10.117Z,21.00
2022-08-22T09:19:43.845Z,21.40
2022-08-22T09:23:48.700Z,21.40
2022-08-22T09:27:44.050Z,21.50
2022-08-22T09:31:47.446Z,21.60
2022-08-22T09:35:53.222Z,21.80
2022-08-22T09:39:41.490Z,21.70
2022-08-22T09:40:16.019Z,21.30
2022-08-22T09:43:38.748Z,21.70
2022-08-22T09:47:35.366Z,21.60
2022-08-22T09:51:54.156Z,21.60
2022-08-22T09:55:40.270Z,21.50
2022-08-22T09:59:43.497Z,21.40
2022-08-22T10:03:44.265Z,21.30
2022-08-22T10:07:48.001Z,21.30
2022-08-22T10:11:42.175Z,21.20
2022-08-22T10:15:48.796Z,21.10
2022-08-22T10:19:39.791Z,21.00
2022-08-22T10:23:32.274Z,21.00
2022-08-22T10:27:22.669Z,20.90
2022-08-22T10:31:22.654Z,20.90
2022-08-22T10:35:25.641Z,21.00
2022-08-22T10:39:14.386Z,21.00
2022-08-22T10:43:02.170Z,21.20
2022-08-22T10:46:55.472Z,21.20
2022-08-22T10:50:47.470Z,21.30
2022-08-22T10:54:42.073Z,21.40
2022-08-22T10:58:28.530Z,21.50
2022-08-22T11:02:42.276Z,21.60
2022-08-22T11:06:56.012Z,21.70
2022-08-22T11:10:56.548Z,21.80
2022-08-22T11:15:07.539Z,21.80
2022-08-22T11:19:15.930Z,21.80
2022-08-22T12:47:18.922Z,22.00
2022-08-22T12:51:22.809Z,21.70
2022-08-22T12:55:12.132Z,21.60
2022-08-22T12:58:59.732Z,21.60
2022-08-22T13:02:44.933Z,21.60
2022-08-22T13:06:35.701Z,21.90
2022-08-22T13:10:41.012Z,22.20
2022-08-22T13:14:26.738Z,22.70
2022-08-22T13:18:29.884Z,23.20
2022-08-22T13:22:19.911Z,23.50
2022-08-22T13:26:34.107Z,23.80
2022-08-22T13:30:37.617Z,23.90
2022-08-22T13:34:39.607Z,23.90
2022-08-22T13:38:30.082Z,23.80
2022-08-22T13:42:20.412Z,23.70
2022-08-22T13:46:13.238Z,23.60
2022-08-22T13:50:11.894Z,23.30
2022-08-22T13:54:11.031Z,23.00
2022-08-22T13:58:12.599Z,22.70
2022-08-22T14:02:17.987Z,22.50
2022-08-22T14:06:32.724Z,22.50
2022-08-22T14:10:12.494Z,22.60
2022-08-22T14:14:08.200Z,22.60
2022-08-22T14:17:55.679Z,22.40
2022-08-22T14:21:47.864Z,22.30
2022-08-22T14:25:39.610Z,22.20
2022-08-22T14:29:24.502Z,22.20
2022-08-22T14:33:25.151Z,22.50
2022-08-22T14:37:15.915Z,22.70
2022-08-22T14:41:05.293Z,23.00
2022-08-22T14:45:06.668Z,23.30
2022-08-22T14:49:07.377Z,23.50
2022-08-22T14:53:05.474Z,23.50
2022-08-22T14:56:49.665Z,23.30
2022-08-22T15:00:34.368Z,22.90
2022-08-22T15:04:24.003Z,22.60
2022-08-22T15:08:10.779Z,22.40
2022-08-22T15:11:53.497Z,22.20
2022-08-22T15:15:53.636Z,22.00
2022-08-22T15:19:41.089Z,21.90
2022-08-22T15:23:24.342Z,21.90
2022-08-22T15:27:06.881Z,21.80
2022-08-22T15:31:17.128Z,21.70
2022-08-22T15:35:13.862Z,21.70
2022-08-22T15:39:28.930Z,21.70
2022-08-22T15:43:34.888Z,21.70
2022-08-22T15:47:34.968Z,21.60
2022-08-22T15:51:51.191Z,21.60
2022-08-22T15:55:34.468Z,21.70
2022-08-22T15:59:26.730Z,21.80
2022-08-22T16:03:11.777Z,21.90
2022-08-22T16:06:58.060Z,21.80
2022-08-22T16:11:01.769Z,21.60
2022-08-22T16:14:47.309Z,21.50
2022-08-22T16:18:39.137Z,21.40
2022-08-22T16:22:22.411Z,21.30
2022-08-22T16:26:06.732Z,21.30
2022-08-22T16:29:59.390Z,21.20
2022-08-22T16:33:43.460Z,21.10
2022-08-22T16:37:25.287Z,21.10
2022-08-22T16:41:08.386Z,21.20
2022-08-22T16:45:11.633Z,21.20
2022-08-22T16:49:00.851Z,21.20
2022-08-22T16:53:20.820Z,21.20
2022-08-22T16:57:28.490Z,21.30
2022-08-22T17:01:33.271Z,21.30
2022-08-22T17:05:30.448Z,21.30
2022-08-22T17:09:43.081Z,21.30
2022-08-22T17:13:40.297Z,21.20
2022-08-22T17:17:43.773Z,21.30
2022-08-22T17:21:38.616Z,21.30
2022-08-22T17:26:04.405Z,21.20
2022-08-22T17:30:11.896Z,21.10
2022-08-22T17:34:35.521Z,21.20
2022-08-22T17:38:17.368Z,21.10
2022-08-22T17:42:26.730Z,21.10
2022-08-22T17:46:29.454Z,21.00
2022-08-22T17:50:41.905Z,21.00
2022-08-22T17:54:40.602Z,21.00
2022-08-22T17:58:37.445Z,21.00
2022-08-22T18:02:44.566Z,21.00
2022-08-22T18:06:36.007Z,21.00
2022-08-22T18:10:19.375Z,21.00
2022-08-22T18:14:33.453Z,21.00
2022-08-22T18:18:33.397Z,21.00
2022-08-22T18:22:33.386Z,21.00
2022-08-22T18:26:29.390Z,21.00
2022-08-22T18:30:11.287Z,20.90
2022-08-22T18:34:13.530Z,20.90
2022-08-22T18:38:19.705Z,20.80
2022-08-22T18:42:11.701Z,20.80
2022-08-22T18:45:58.229Z,20.60
2022-08-22T18:49:48.327Z,20.60
2022-08-22T18:53:45.326Z,20.50
2022-08-22T18:58:04.587Z,20.40
2022-08-22T19:01:57.560Z,20.30
2022-08-22T19:06:05.912Z,20.30
2022-08-22T19:10:24.281Z,20.20
2022-08-22T19:14:43.009Z,20.20
2022-08-22T19:19:00.105Z,20.20
2022-08-22T19:22:43.180Z,20.20
2022-08-22T19:26:38.722Z,20.20
2022-08-22T19:30:39.363Z,20.10
2022-08-22T19:34:29.798Z,20.10
2022-08-22T19:38:12.442Z,20.00
2022-08-22T19:41:57.102Z,20.10
2022-08-22T19:45:40.242Z,20.00
2022-08-22T19:49:36.193Z,20.00
2022-08-22T19:53:36.782Z,19.90
2022-08-22T19:57:42.350Z,19.90
2022-08-22T20:02:06.630Z,19.90
2022-08-22T20:06:22.064Z,19.90
2022-08-22T20:10:17.026Z,19.80
2022-08-22T20:14:30.897Z,19.80
2022-08-22T20:18:47.364Z,19.60
2022-08-22T20:22:23.005Z,19.60
2022-08-22T20:26:06.993Z,19.50
2022-08-22T20:29:54.288Z,19.40
2022-08-22T20:33:43.890Z,19.30
2022-08-22T20:38:03.272Z,19.20
2022-08-22T20:41:41.018Z,19.20
2022-08-22T20:45:24.486Z,19.20
2022-08-22T20:49:41.961Z,19.10
2022-08-22T20:53:23.847Z,19.20
2022-08-22T20:57:17.042Z,19.10
2022-08-22T21:01:00.188Z,19.10
2022-08-22T21:05:22.391Z,19.10
2022-08-22T21:09:32.051Z,19.00
2022-08-22T21:13:23.921Z,19.00
2022-08-22T21:17:34.363Z,18.90
2022-08-22T21:21:24.993Z,18.80
2022-08-22T21:25:07.149Z,18.70
2022-08-22T21:28:57.991Z,18.70
2022-08-22T21:32:46.898Z,18.60
2022-08-22T21:36:31.507Z,18.60
2022-08-22T21:40:16.477Z,18.60
2022-08-22T21:44:37.659Z,18.60
2022-08-22T21:48:56.646Z,18.60
2022-08-22T21:53:01.382Z,18.70
2022-08-22T21:56:43.252Z,18.70
2022-08-22T22:00:51.494Z,18.70
2022-08-22T22:04:33.421Z,18.60
2022-08-22T22:08:18.594Z,18.60
2022-08-22T22:12:00.457Z,18.50
2022-08-22T22:15:48.602Z,18.50
2022-08-22T22:19:30.495Z,18.50
2022-08-22T22:23:12.859Z,18.50
2022-08-22T22:26:55.265Z,18.50
2022-08-22T22:30:37.320Z,18.50
2022-08-22T22:34:19.291Z,18.60
2022-08-22T22:38:02.132Z,18.60
2022-08-22T22:41:44.280Z,18.50
2022-08-22T22:45:26.259Z,18.50
2022-08-22T22:49:08.110Z,18.50
2022-08-22T22:52:50.218Z,18.50
2022-08-22T22:56:32.178Z,18.50
2022-08-22T23:00:16.647Z,18.60
2022-08-22T23:04:03.335Z,18.60
2022-08-22T23:07:47.840Z,18.60
2022-08-22T23:11:30.760Z,18.70
2022-08-22T23:15:12.796Z,18.60
2022-08-22T23:18:55.630Z,18.70
2022-08-22T23:22:37.658Z,18.70
2022-08-22T23:26:19.522Z,18.70
2022-08-22T23:30:02.351Z,18.80
2022-08-22T23:33:45.837Z,18.80
2022-08-22T23:37:27.800Z,18.90
2022-08-22T23:41:11.809Z,18.90
2022-08-22T23:44:53.791Z,19.10
2022-08-22T23:48:35.704Z,19.10
2022-08-22T23:52:17.591Z,19.20
2022-08-22T23:56:19.400Z,19.20
